sensor_id;sensor_type;location;lat;lon;timestamp;pressure;altitude;pressure_sealevel;temperature;humidity
24610;BME280;12758;47.890;11.694;2022-10-16T00:00:55;93934.75;;;15.05;93.26
24610;BME280;12758;47.890;11.694;2022-10-16T00:03:21;93944.97;;;15.08;93.55
24610;BME280;12758;47.890;11.694;2022-10-16T00:05:50;93946.41;;;15.02;93.08
24610;BME280;12758;47.890;11.694;2022-10-16T00:08:16;93949.59;;;15.04;93.01
24610;BME280;12758;47.890;11.694;2022-10-16T00:10:45;93935.66;;;15.09;92.82
24610;BME280;12758;47.890;11.694;2022-10-16T00:13:11;93931.75;;;15.10;92.70
24610;BME280;12758;47.890;11.694;2022-10-16T00:15:41;93926.28;;;15.10;92.71
24610;BME280;12758;47.890;11.694;2022-10-16T00:18:09;93937.16;;;15.06;92.15
24610;BME280;12758;47.890;11.694;2022-10-16T00:20:38;93943.84;;;15.09;92.49
24610;BME280;12758;47.890;11.694;2022-10-16T00:23:04;93949.22;;;15.05;92.25
24610;BME280;12758;47.890;11.694;2022-10-16T00:25:33;93949.59;;;15.04;92.20
24610;BME280;12758;47.890;11.694;2022-10-16T00:28:02;93955.50;;;15.06;92.33
24610;BME280;12758;47.890;11.694;2022-10-16T00:30:28;93964.81;;;15.05;92.26
24610;BME280;12758;47.890;11.694;2022-10-16T00:32:55;93955.59;;;14.94;92.77
24610;BME280;12758;47.890;11.694;2022-10-16T00:35:24;93957.69;;;15.00;92.79
24610;BME280;12758;47.890;11.694;2022-10-16T00:37:53;93960.19;;;14.89;92.89
24610;BME280;12758;47.890;11.694;2022-10-16T00:40:19;93949.34;;;14.93;93.10
24610;BME280;12758;47.890;11.694;2022-10-16T00:42:48;93946.22;;;14.95;93.01
24610;BME280;12758;47.890;11.694;2022-10-16T00:45:15;93957.63;;;14.97;92.33
24610;BME280;12758;47.890;11.694;2022-10-16T00:47:44;93954.78;;;14.93;92.85
24610;BME280;12758;47.890;11.694;2022-10-16T00:50:18;93952.47;;;14.95;92.39
24610;BME280;12758;47.890;11.694;2022-10-16T00:52:50;93947.31;;;14.90;92.65
24610;BME280;12758;47.890;11.694;2022-10-16T00:55:17;93952.41;;;14.91;92.84
24610;BME280;12758;47.890;11.694;2022-10-16T00:57:47;93954.34;;;14.91;92.47
24610;BME280;12758;47.890;11.694;2022-10-16T01:00:19;93960.97;;;14.90;92.62
24610;BME280;12758;47.890;11.694;2022-10-16T01:02:52;93953.09;;;14.88;92.78
24610;BME280;12758;47.890;11.694;2022-10-16T01:05:19;93958.56;;;14.88;92.45
24610;BME280;12758;47.890;11.694;2022-10-16T01:07:53;93946.84;;;14.88;92.63
24610;BME280;12758;47.890;11.694;2022-10-16T01:10:28;93941.03;;;14.89;92.39
24610;BME280;12758;47.890;11.694;2022-10-16T01:12:59;93940.59;;;14.87;92.42
24610;BME280;12758;47.890;11.694;2022-10-16T01:15:29;93952.69;;;14.86;91.81
24610;BME280;12758;47.890;11.694;2022-10-16T01:17:58;93955.41;;;14.86;92.20
24610;BME280;12758;47.890;11.694;2022-10-16T01:20:31;93956.28;;;14.90;91.93
24610;BME280;12758;47.890;11.694;2022-10-16T01:23:04;93956.91;;;14.84;91.87
24610;BME280;12758;47.890;11.694;2022-10-16T01:25:42;93961.22;;;14.69;88.78
24610;BME280;12758;47.890;11.694;2022-10-16T01:28:15;93969.31;;;14.81;90.83
24610;BME280;12758;47.890;11.694;2022-10-16T01:30:46;93961.38;;;14.76;91.90
24610;BME280;12758;47.890;11.694;2022-10-16T01:33:14;93966.84;;;14.76;92.21
24610;BME280;12758;47.890;11.694;2022-10-16T01:35:46;93969.31;;;14.81;92.50
24610;BME280;12758;47.890;11.694;2022-10-16T01:38:17;93973.72;;;14.70;89.68
24610;BME280;12758;47.890;11.694;2022-10-16T01:40:50;93972.94;;;14.70;89.93
24610;BME280;12758;47.890;11.694;2022-10-16T01:43:20;93970.72;;;14.75;91.49
24610;BME280;12758;47.890;11.694;2022-10-16T01:45:51;93965.97;;;14.72;91.72
24610;BME280;12758;47.890;11.694;2022-10-16T01:48:19;93973.72;;;14.70;91.81
24610;BME280;12758;47.890;11.694;2022-10-16T01:50:52;93972.31;;;14.76;91.64
24610;BME280;12758;47.890;11.694;2022-10-16T01:53:20;93965.28;;;14.75;91.92
24610;BME280;12758;47.890;11.694;2022-10-16T01:55:51;93975.50;;;14.78;91.61
24610;BME280;12758;47.890;11.694;2022-10-16T02:01:46;93966.94;;;14.64;91.27
24610;BME280;12758;47.890;11.694;2022-10-16T02:04:20;93977.59;;;14.69;91.98
24610;BME280;12758;47.890;11.694;2022-10-16T02:06:50;93969.69;;;14.64;92.43
24610;BME280;12758;47.890;11.694;2022-10-16T02:09:18;93971.50;;;14.60;92.07
24610;BME280;12758;47.890;11.694;2022-10-16T02:11:46;93982.88;;;14.62;92.23
24610;BME280;12758;47.890;11.694;2022-10-16T02:14:17;93979.00;;;14.63;91.77
24610;BME280;12758;47.890;11.694;2022-10-16T02:16:46;93982.88;;;14.62;92.12
24610;BME280;12758;47.890;11.694;2022-10-16T02:19:13;93966.50;;;14.62;92.24
24610;BME280;12758;47.890;11.694;2022-10-16T02:21:46;93963.31;;;14.60;92.14
24610;BME280;12758;47.890;11.694;2022-10-16T02:24:21;93963.31;;;14.60;92.24
24610;BME280;12758;47.890;11.694;2022-10-16T02:26:52;93962.88;;;14.58;92.22
24610;BME280;12758;47.890;11.694;2022-10-16T02:29:24;93965.63;;;14.58;92.43
24610;BME280;12758;47.890;11.694;2022-10-16T02:31:57;93961.06;;;14.50;91.56
24610;BME280;12758;47.890;11.694;2022-10-16T02:34:27;93961.97;;;14.54;91.94
24610;BME280;12758;47.890;11.694;2022-10-16T02:36:55;93965.16;;;14.56;92.20
24610;BME280;12758;47.890;11.694;2022-10-16T02:39:22;93971.78;;;14.55;92.17
24610;BME280;12758;47.890;11.694;2022-10-16T02:41:51;93957.66;;;14.53;92.27
24610;BME280;12758;47.890;11.694;2022-10-16T02:44:20;93959.25;;;14.54;92.17
24610;BME280;12758;47.890;11.694;2022-10-16T02:46:46;93961.53;;;14.52;92.59
24610;BME280;12758;47.890;11.694;2022-10-16T02:49:16;93973.59;;;14.51;92.17
24610;BME280;12758;47.890;11.694;2022-10-16T02:51:42;93974.84;;;14.53;92.37
24610;BME280;12758;47.890;11.694;2022-10-16T02:54:11;93974.72;;;14.50;92.29
24610;BME280;12758;47.890;11.694;2022-10-16T02:56:38;93980.88;;;14.47;92.49
24610;BME280;12758;47.890;11.694;2022-10-16T02:59:07;93975.41;;;14.47;92.45
24610;BME280;12758;47.890;11.694;2022-10-16T03:01:36;93979.06;;;14.51;92.45
24610;BME280;12758;47.890;11.694;2022-10-16T03:04:05;93975.41;;;14.47;91.63
24610;BME280;12758;47.890;11.694;2022-10-16T03:06:35;93979.41;;;14.49;91.83
24610;BME280;12758;47.890;11.694;2022-10-16T03:09:01;93979.06;;;14.51;91.79
24610;BME280;12758;47.890;11.694;2022-10-16T03:11:30;93977.59;;;14.41;91.51
24610;BME280;12758;47.890;11.694;2022-10-16T03:13:56;93980.00;;;14.42;91.42
24610;BME280;12758;47.890;11.694;2022-10-16T03:16:25;93982.47;;;14.48;91.29
24610;BME280;12758;47.890;11.694;2022-10-16T03:18:51;93971.25;;;14.37;89.08
24610;BME280;12758;47.890;11.694;2022-10-16T03:21:20;93967.97;;;14.31;88.79
24610;BME280;12758;47.890;11.694;2022-10-16T03:23:47;93975.03;;;14.32;90.49
24610;BME280;12758;47.890;11.694;2022-10-16T03:26:16;93971.84;;;14.30;90.59
24610;BME280;12758;47.890;11.694;2022-10-16T03:28:46;93973.44;;;14.31;90.27
24610;BME280;12758;47.890;11.694;2022-10-16T03:31:12;93972.75;;;14.34;91.04
24610;BME280;12758;47.890;11.694;2022-10-16T03:33:38;93976.72;;;14.37;91.71
24610;BME280;12758;47.890;11.694;2022-10-16T03:36:05;93973.66;;;14.38;91.49
24610;BME280;12758;47.890;11.694;2022-10-16T03:38:34;93979.44;;;14.37;90.79
24610;BME280;12758;47.890;11.694;2022-10-16T03:41:01;93985.59;;;14.34;90.04
24610;BME280;12758;47.890;11.694;2022-10-16T03:43:30;93988.88;;;14.39;91.00
24610;BME280;12758;47.890;11.694;2022-10-16T03:45:56;93981.19;;;14.29;90.04
24610;BME280;12758;47.890;11.694;2022-10-16T03:48:22;93987.16;;;14.19;89.03
24610;BME280;12758;47.890;11.694;2022-10-16T03:50:48;93992.31;;;14.36;90.71
24610;BME280;12758;47.890;11.694;2022-10-16T03:53:18;93999.44;;;14.41;91.02
24610;BME280;12758;47.890;11.694;2022-10-16T03:55:44;93997.88;;;14.40;90.97
24610;BME280;12758;47.890;11.694;2022-10-16T03:58:14;94007.22;;;14.39;91.49
24610;BME280;12758;47.890;11.694;2022-10-16T04:00:41;94000.66;;;14.28;91.82
24610;BME280;12758;47.890;11.694;2022-10-16T04:03:10;93997.69;;;14.33;91.58
24610;BME280;12758;47.890;11.694;2022-10-16T04:05:40;93993.06;;;14.21;88.88
24610;BME280;12758;47.890;11.694;2022-10-16T04:08:06;93995.09;;;14.24;91.05
24610;BME280;12758;47.890;11.694;2022-10-16T04:10:35;93995.97;;;14.28;91.67
24610;BME280;12758;47.890;11.694;2022-10-16T04:13:01;93998.38;;;14.30;91.65
24610;BME280;12758;47.890;11.694;2022-10-16T04:15:31;94003.94;;;14.33;91.38
24610;BME280;12758;47.890;11.694;2022-10-16T04:17:57;93999.53;;;14.29;91.53
24610;BME280;12758;47.890;11.694;2022-10-16T04:20:26;93996.78;;;14.29;91.35
24610;BME280;12758;47.890;11.694;2022-10-16T04:22:52;93989.81;;;14.31;91.14
24610;BME280;12758;47.890;11.694;2022-10-16T04:25:21;93994.41;;;14.27;91.24
24610;BME280;12758;47.890;11.694;2022-10-16T04:27:47;93983.78;;;14.10;87.90
24610;BME280;12758;47.890;11.694;2022-10-16T04:30:16;93990.44;;;13.96;88.57
24610;BME280;12758;47.890;11.694;2022-10-16T04:32:48;93994.28;;;13.95;87.92
24610;BME280;12758;47.890;11.694;2022-10-16T04:35:17;94007.66;;;14.13;90.07
24610;BME280;12758;47.890;11.694;2022-10-16T04:37:43;94012.84;;;14.18;90.68
24610;BME280;12758;47.890;11.694;2022-10-16T04:40:10;94009.19;;;14.26;90.91
24610;BME280;12758;47.890;11.694;2022-10-16T04:42:39;94006.00;;;14.24;90.88
24610;BME280;12758;47.890;11.694;2022-10-16T04:45:06;93999.66;;;14.20;89.41
24610;BME280;12758;47.890;11.694;2022-10-16T04:47:35;94001.00;;;14.26;90.70
24610;BME280;12758;47.890;11.694;2022-10-16T04:50:02;93991.00;;;14.18;89.94
24610;BME280;12758;47.890;11.694;2022-10-16T04:52:31;93990.13;;;14.14;89.19
24610;BME280;12758;47.890;11.694;2022-10-16T04:54:57;93999.47;;;14.13;89.52
24610;BME280;12758;47.890;11.694;2022-10-16T04:57:29;93995.41;;;14.07;89.19
24610;BME280;12758;47.890;11.694;2022-10-16T04:59:55;93985.56;;;14.18;90.25
24610;BME280;12758;47.890;11.694;2022-10-16T05:02:24;93980.09;;;14.18;90.05
24610;BME280;12758;47.890;11.694;2022-10-16T05:04:51;93978.56;;;14.05;88.50
24610;BME280;12758;47.890;11.694;2022-10-16T05:07:21;93977.22;;;13.98;88.47
24610;BME280;12758;47.890;11.694;2022-10-16T05:09:47;93982.66;;;13.98;89.40
24610;BME280;12758;47.890;11.694;2022-10-16T05:12:13;93976.56;;;13.89;88.21
24610;BME280;12758;47.890;11.694;2022-10-16T05:14:42;93981.59;;;13.87;87.98
24610;BME280;12758;47.890;11.694;2022-10-16T05:17:08;93984.75;;;13.89;88.98
24610;BME280;12758;47.890;11.694;2022-10-16T05:19:37;93979.06;;;13.94;89.71
24610;BME280;12758;47.890;11.694;2022-10-16T05:22:03;93978.69;;;13.96;89.75
24610;BME280;12758;47.890;11.694;2022-10-16T05:24:33;93972.91;;;13.97;89.63
24610;BME280;12758;47.890;11.694;2022-10-16T05:26:59;93969.97;;;13.90;88.65
24610;BME280;12758;47.890;11.694;2022-10-16T05:29:28;93978.69;;;13.68;88.16
24610;BME280;12758;47.890;11.694;2022-10-16T05:31:54;93982.03;;;13.77;89.60
24610;BME280;12758;47.890;11.694;2022-10-16T05:34:23;93978.41;;;13.85;90.46
24610;BME280;12758;47.890;11.694;2022-10-16T05:36:49;93985.22;;;13.79;89.12
24610;BME280;12758;47.890;11.694;2022-10-16T05:39:18;93984.59;;;13.58;88.90
24610;BME280;12758;47.890;11.694;2022-10-16T05:41:45;93990.16;;;13.61;89.96
24610;BME280;12758;47.890;11.694;2022-10-16T05:44:15;93988.91;;;13.71;90.71
24610;BME280;12758;47.890;11.694;2022-10-16T05:46:44;93998.19;;;13.82;91.63
24610;BME280;12758;47.890;11.694;2022-10-16T05:49:14;94002.47;;;13.95;91.58
24610;BME280;12758;47.890;11.694;2022-10-16T05:51:40;94000.63;;;13.99;91.33
24610;BME280;12758;47.890;11.694;2022-10-16T05:54:10;94003.88;;;13.77;90.06
24610;BME280;12758;47.890;11.694;2022-10-16T05:56:40;94014.75;;;13.89;91.80
24610;BME280;12758;47.890;11.694;2022-10-16T05:59:09;94015.22;;;13.91;90.81
24610;BME280;12758;47.890;11.694;2022-10-16T06:01:38;94023.59;;;13.98;90.90
24610;BME280;12758;47.890;11.694;2022-10-16T06:04:04;94025.34;;;13.91;90.32
24610;BME280;12758;47.890;11.694;2022-10-16T06:06:34;94030.25;;;13.73;90.05
24610;BME280;12758;47.890;11.694;2022-10-16T06:09:02;94025.38;;;13.66;90.26
24610;BME280;12758;47.890;11.694;2022-10-16T06:11:32;94031.16;;;13.77;91.16
24610;BME280;12758;47.890;11.694;2022-10-16T06:14:00;94037.31;;;13.74;90.95
24610;BME280;12758;47.890;11.694;2022-10-16T06:16:32;94034.34;;;13.67;90.51
24610;BME280;12758;47.890;11.694;2022-10-16T06:18:58;94042.97;;;13.81;91.46
24610;BME280;12758;47.890;11.694;2022-10-16T06:21:28;94044.34;;;13.75;90.85
24610;BME280;12758;47.890;11.694;2022-10-16T06:23:55;94042.97;;;13.81;91.03
24610;BME280;12758;47.890;11.694;2022-10-16T06:26:26;94040.25;;;13.81;91.14
24610;BME280;12758;47.890;11.694;2022-10-16T06:28:53;94047.09;;;13.75;90.85
24610;BME280;12758;47.890;11.694;2022-10-16T06:31:23;94050.97;;;13.62;91.60
24610;BME280;12758;47.890;11.694;2022-10-16T06:33:53;94048.44;;;13.69;91.61
24610;BME280;12758;47.890;11.694;2022-10-16T06:36:23;94063.47;;;13.63;91.94
24610;BME280;12758;47.890;11.694;2022-10-16T06:38:50;94054.38;;;13.71;91.86
24610;BME280;12758;47.890;11.694;2022-10-16T06:41:20;94049.34;;;13.73;91.60
24610;BME280;12758;47.890;11.694;2022-10-16T06:43:47;94049.91;;;13.79;91.71
24610;BME280;12758;47.890;11.694;2022-10-16T06:46:18;94060.94;;;13.58;93.01
24610;BME280;12758;47.890;11.694;2022-10-16T06:48:44;94057.56;;;13.36;96.67
24610;BME280;12758;47.890;11.694;2022-10-16T06:51:16;94059.59;;;13.27;98.65
24610;BME280;12758;47.890;11.694;2022-10-16T06:53:46;94061.88;;;13.37;99.01
24610;BME280;12758;47.890;11.694;2022-10-16T06:56:16;94064.94;;;13.60;97.37
24610;BME280;12758;47.890;11.694;2022-10-16T06:58:46;94065.03;;;13.64;95.60
24610;BME280;12758;47.890;11.694;2022-10-16T07:01:12;94070.50;;;13.64;95.60
24610;BME280;12758;47.890;11.694;2022-10-16T07:03:43;94068.91;;;13.63;96.43
24610;BME280;12758;47.890;11.694;2022-10-16T07:06:11;94070.38;;;13.60;98.22
24610;BME280;12758;47.890;11.694;2022-10-16T07:08:42;94084.38;;;13.59;98.84
24610;BME280;12758;47.890;11.694;2022-10-16T07:11:10;94083.44;;;13.55;99.86
24610;BME280;12758;47.890;11.694;2022-10-16T07:13:40;94085.75;;;13.52;100.00
24610;BME280;12758;47.890;11.694;2022-10-16T07:16:08;94090.25;;;13.61;100.00
24610;BME280;12758;47.890;11.694;2022-10-16T07:18:38;94092.41;;;13.67;98.60
24610;BME280;12758;47.890;11.694;2022-10-16T07:21:10;94094.16;;;13.72;99.17
24610;BME280;12758;47.890;11.694;2022-10-16T07:23:37;94105.28;;;13.79;99.23
24610;BME280;12758;47.890;11.694;2022-10-16T07:26:08;94104.94;;;13.81;100.00
24610;BME280;12758;47.890;11.694;2022-10-16T07:28:38;94109.38;;;13.85;100.00
24610;BME280;12758;47.890;11.694;2022-10-16T07:31:10;94113.34;;;13.88;99.50
24610;BME280;12758;47.890;11.694;2022-10-16T07:33:37;94117.53;;;13.97;97.97
24610;BME280;12758;47.890;11.694;2022-10-16T07:36:06;94120.94;;;14.07;97.50
24610;BME280;12758;47.890;11.694;2022-10-16T07:38:32;94117.75;;;14.17;97.03
24610;BME280;12758;47.890;11.694;2022-10-16T07:41:04;94120.00;;;14.27;95.08
24610;BME280;12758;47.890;11.694;2022-10-16T07:43:31;94118.81;;;14.40;93.39
24610;BME280;12758;47.890;11.694;2022-10-16T07:46:00;94118.59;;;14.45;92.22
24610;BME280;12758;47.890;11.694;2022-10-16T07:48:27;94117.53;;;14.50;91.06
24610;BME280;12758;47.890;11.694;2022-10-16T07:50:57;94118.78;;;14.65;90.83
24610;BME280;12758;47.890;11.694;2022-10-16T07:53:24;94127.44;;;14.67;92.51
24610;BME280;12758;47.890;11.694;2022-10-16T07:55:56;94126.72;;;14.70;94.65
24610;BME280;12758;47.890;11.694;2022-10-16T07:58:23;94134.69;;;14.75;96.58
24610;BME280;12758;47.890;11.694;2022-10-16T08:00:52;94137.47;;;14.91;93.76
24610;BME280;12758;47.890;11.694;2022-10-16T08:03:19;94130.56;;;15.09;91.03
24610;BME280;12758;47.890;11.694;2022-10-16T08:05:48;94137.41;;;15.03;90.12
24610;BME280;12758;47.890;11.694;2022-10-16T08:08:15;94139.09;;;15.08;91.75
24610;BME280;12758;47.890;11.694;2022-10-16T08:10:44;94140.09;;;15.16;92.28
24610;BME280;12758;47.890;11.694;2022-10-16T08:13:11;94139.81;;;15.21;90.45
24610;BME280;12758;47.890;11.694;2022-10-16T08:15:41;94143.81;;;15.23;86.31
24610;BME280;12758;47.890;11.694;2022-10-16T08:18:09;94151.06;;;15.31;87.99
24610;BME280;12758;47.890;11.694;2022-10-16T08:20:39;94153.72;;;15.44;90.61
24610;BME280;12758;47.890;11.694;2022-10-16T08:23:09;94158.28;;;15.40;89.96
24610;BME280;12758;47.890;11.694;2022-10-16T08:25:39;94163.53;;;15.45;90.55
24610;BME280;12758;47.890;11.694;2022-10-16T08:28:09;94152.13;;;15.43;88.13
24610;BME280;12758;47.890;11.694;2022-10-16T08:30:39;94162.47;;;15.49;86.73
24610;BME280;12758;47.890;11.694;2022-10-16T08:33:09;94162.47;;;15.65;83.70
24610;BME280;12758;47.890;11.694;2022-10-16T08:35:35;94161.72;;;15.80;82.10
24610;BME280;12758;47.890;11.694;2022-10-16T08:38:04;94165.88;;;15.90;83.71
24610;BME280;12758;47.890;11.694;2022-10-16T08:40:32;94163.56;;;15.92;82.98
24610;BME280;12758;47.890;11.694;2022-10-16T08:43:12;94167.19;;;15.96;81.38
24610;BME280;12758;47.890;11.694;2022-10-16T08:45:51;94166.47;;;16.15;80.32
24610;BME280;12758;47.890;11.694;2022-10-16T08:48:27;94167.97;;;16.13;78.76
24610;BME280;12758;47.890;11.694;2022-10-16T08:51:00;94169.91;;;16.12;78.87
24610;BME280;12758;47.890;11.694;2022-10-16T08:53:36;94165.06;;;16.21;78.83
24610;BME280;12758;47.890;11.694;2022-10-16T08:56:07;94174.75;;;16.35;78.81
24610;BME280;12758;47.890;11.694;2022-10-16T08:58:36;94172.94;;;16.42;77.80
24610;BME280;12758;47.890;11.694;2022-10-16T09:01:04;94185.78;;;16.73;81.13
24610;BME280;12758;47.890;11.694;2022-10-16T09:03:48;94185.63;;;16.66;78.26
24610;BME280;12758;47.890;11.694;2022-10-16T09:06:25;94194.84;;;16.58;80.92
24610;BME280;12758;47.890;11.694;2022-10-16T09:09:15;94186.53;;;16.54;78.31
24610;BME280;12758;47.890;11.694;2022-10-16T09:11:48;94190.78;;;16.52;78.23
24610;BME280;12758;47.890;11.694;2022-10-16T09:14:42;94191.53;;;16.68;76.94
24610;BME280;12758;47.890;11.694;2022-10-16T09:17:24;94194.19;;;17.00;74.82
24610;BME280;12758;47.890;11.694;2022-10-16T09:19:56;94198.81;;;16.96;75.01
24610;BME280;12758;47.890;11.694;2022-10-16T09:22:29;94197.66;;;17.16;77.51
24610;BME280;12758;47.890;11.694;2022-10-16T09:25:00;94205.59;;;17.41;79.19
24610;BME280;12758;47.890;11.694;2022-10-16T09:27:30;94206.59;;;17.33;72.34
24610;BME280;12758;47.890;11.694;2022-10-16T09:29:59;94204.75;;;17.17;71.86
24610;BME280;12758;47.890;11.694;2022-10-16T09:32:25;94208.03;;;17.27;73.59
24610;BME280;12758;47.890;11.694;2022-10-16T09:34:55;94208.50;;;17.29;71.33
24610;BME280;12758;47.890;11.694;2022-10-16T09:37:22;94208.94;;;17.31;70.95
24610;BME280;12758;47.890;11.694;2022-10-16T09:39:53;94207.47;;;17.37;73.28
24610;BME280;12758;47.890;11.694;2022-10-16T09:42:21;94218.72;;;17.51;74.51
24610;BME280;12758;47.890;11.694;2022-10-16T09:44:52;94207.09;;;17.58;71.02
24610;BME280;12758;47.890;11.694;2022-10-16T09:47:20;94207.63;;;17.44;71.74
24610;BME280;12758;47.890;11.694;2022-10-16T09:49:51;94197.91;;;17.69;71.46
24610;BME280;12758;47.890;11.694;2022-10-16T09:52:18;94209.81;;;17.77;71.80
24610;BME280;12758;47.890;11.694;2022-10-16T09:54:53;94212.47;;;17.93;69.81
24610;BME280;12758;47.890;11.694;2022-10-16T09:57:22;94212.03;;;18.14;67.29
24610;BME280;12758;47.890;11.694;2022-10-16T09:59:53;94216.84;;;18.21;68.45
24610;BME280;12758;47.890;11.694;2022-10-16T10:02:23;94222.16;;;18.10;68.00
24610;BME280;12758;47.890;11.694;2022-10-16T10:04:56;94215.94;;;18.62;67.23
24610;BME280;12758;47.890;11.694;2022-10-16T10:07:27;94213.19;;;18.89;64.87
24610;BME280;12758;47.890;11.694;2022-10-16T10:09:57;94210.97;;;18.98;66.30
24610;BME280;12758;47.890;11.694;2022-10-16T10:12:24;94207.78;;;18.96;64.76
24610;BME280;12758;47.890;11.694;2022-10-16T10:14:55;94209.28;;;18.90;65.02
24610;BME280;12758;47.890;11.694;2022-10-16T10:17:26;94211.13;;;18.82;65.75
24610;BME280;12758;47.890;11.694;2022-10-16T10:19:53;94203.66;;;19.43;65.01
24610;BME280;12758;47.890;11.694;2022-10-16T10:22:26;94212.91;;;19.28;62.91
24610;BME280;12758;47.890;11.694;2022-10-16T10:24:59;94206.38;;;19.40;62.50
24610;BME280;12758;47.890;11.694;2022-10-16T10:27:34;94206.19;;;19.59;60.77
24610;BME280;12758;47.890;11.694;2022-10-16T10:30:04;94199.56;;;19.30;60.70
24610;BME280;12758;47.890;11.694;2022-10-16T10:32:37;94210.75;;;19.44;60.14
24610;BME280;12758;47.890;11.694;2022-10-16T10:35:14;94210.41;;;19.49;60.67
24610;BME280;12758;47.890;11.694;2022-10-16T10:37:59;94210.91;;;19.59;56.78
24610;BME280;12758;47.890;11.694;2022-10-16T10:40:34;94204.53;;;19.85;50.07
24610;BME280;12758;47.890;11.694;2022-10-16T10:43:09;94197.97;;;19.63;52.78
24610;BME280;12758;47.890;11.694;2022-10-16T10:45:42;94198.66;;;19.52;52.49
24610;BME280;12758;47.890;11.694;2022-10-16T10:48:24;94194.53;;;19.69;52.82
24610;BME280;12758;47.890;11.694;2022-10-16T10:50:56;94193.53;;;19.54;52.74
24610;BME280;12758;47.890;11.694;2022-10-16T10:53:31;94192.75;;;19.54;54.31
24610;BME280;12758;47.890;11.694;2022-10-16T10:56:07;94200.72;;;19.63;55.39
24610;BME280;12758;47.890;11.694;2022-10-16T10:59:08;94200.91;;;19.43;52.21
24610;BME280;12758;47.890;11.694;2022-10-16T11:01:46;94205.06;;;19.97;52.54
24610;BME280;12758;47.890;11.694;2022-10-16T11:04:41;94202.84;;;20.14;54.59
24610;BME280;12758;47.890;11.694;2022-10-16T11:07:16;94207.38;;;19.95;50.82
24610;BME280;12758;47.890;11.694;2022-10-16T11:09:48;94212.41;;;20.27;52.43
24610;BME280;12758;47.890;11.694;2022-10-16T11:12:18;94214.91;;;20.46;50.98
24610;BME280;12758;47.890;11.694;2022-10-16T11:14:49;94213.22;;;20.31;52.90
24610;BME280;12758;47.890;11.694;2022-10-16T11:17:23;94212.41;;;20.27;52.05
24610;BME280;12758;47.890;11.694;2022-10-16T11:19:56;94201.06;;;19.91;54.10
24610;BME280;12758;47.890;11.694;2022-10-16T11:22:28;94210.88;;;20.33;52.03
24610;BME280;12758;47.890;11.694;2022-10-16T11:25:00;94204.16;;;19.52;52.41
24610;BME280;12758;47.890;11.694;2022-10-16T11:27:34;94216.63;;;19.76;50.81
24610;BME280;12758;47.890;11.694;2022-10-16T11:30:08;94201.47;;;19.60;54.39
24610;BME280;12758;47.890;11.694;2022-10-16T11:32:47;94208.53;;;20.35;48.53
24610;BME280;12758;47.890;11.694;2022-10-16T11:35:21;94207.97;;;20.19;47.42
24610;BME280;12758;47.890;11.694;2022-10-16T11:37:50;94202.38;;;20.53;53.78
24610;BME280;12758;47.890;11.694;2022-10-16T11:40:25;94202.13;;;20.24;47.63
24610;BME280;12758;47.890;11.694;2022-10-16T11:42:55;94196.19;;;20.22;48.32
24610;BME280;12758;47.890;11.694;2022-10-16T11:45:30;94193.81;;;19.76;49.26
24610;BME280;12758;47.890;11.694;2022-10-16T11:48:01;94199.09;;;19.92;49.54
24610;BME280;12758;47.890;11.694;2022-10-16T11:50:32;94190.25;;;20.13;48.22
24610;BME280;12758;47.890;11.694;2022-10-16T11:53:03;94200.47;;;20.60;47.76
24610;BME280;12758;47.890;11.694;2022-10-16T11:55:35;94199.34;;;20.68;47.01
24610;BME280;12758;47.890;11.694;2022-10-16T11:58:04;94192.22;;;20.64;47.68
24610;BME280;12758;47.890;11.694;2022-10-16T12:00:39;94201.66;;;20.63;48.34
24610;BME280;12758;47.890;11.694;2022-10-16T12:03:14;94193.59;;;20.99;46.54
24610;BME280;12758;47.890;11.694;2022-10-16T12:05:55;94198.31;;;20.94;49.03
24610;BME280;12758;47.890;11.694;2022-10-16T12:08:23;94196.28;;;20.84;47.61
24610;BME280;12758;47.890;11.694;2022-10-16T12:10:54;94193.09;;;20.75;48.11
24610;BME280;12758;47.890;11.694;2022-10-16T12:13:35;94198.44;;;20.54;48.87
24610;BME280;12758;47.890;11.694;2022-10-16T12:16:07;94185.69;;;20.38;46.88
24610;BME280;12758;47.890;11.694;2022-10-16T12:18:48;94189.06;;;20.62;50.03
24610;BME280;12758;47.890;11.694;2022-10-16T12:21:16;94186.88;;;20.92;48.33
24610;BME280;12758;47.890;11.694;2022-10-16T12:23:48;94195.53;;;20.87;49.64
24610;BME280;12758;47.890;11.694;2022-10-16T12:26:24;94194.53;;;21.31;48.38
24610;BME280;12758;47.890;11.694;2022-10-16T12:28:50;94193.88;;;21.49;48.64
24610;BME280;12758;47.890;11.694;2022-10-16T12:31:17;94191.91;;;21.49;46.57
24610;BME280;12758;47.890;11.694;2022-10-16T12:33:56;94180.88;;;21.60;47.71
24610;BME280;12758;47.890;11.694;2022-10-16T12:36:27;94204.53;;;21.54;46.35
24610;BME280;12758;47.890;11.694;2022-10-16T12:38:56;94191.78;;;21.28;46.17
24610;BME280;12758;47.890;11.694;2022-10-16T12:41:28;94186.78;;;21.48;45.26
24610;BME280;12758;47.890;11.694;2022-10-16T12:43:58;94184.47;;;21.68;46.09
24610;BME280;12758;47.890;11.694;2022-10-16T12:46:38;94194.34;;;21.79;42.73
24610;BME280;12758;47.890;11.694;2022-10-16T12:49:23;94189.56;;;21.62;44.26
24610;BME280;12758;47.890;11.694;2022-10-16T12:51:55;94195.13;;;21.76;46.26
24610;BME280;12758;47.890;11.694;2022-10-16T12:54:27;94184.03;;;21.55;44.48
24610;BME280;12758;47.890;11.694;2022-10-16T12:57:03;94185.47;;;21.34;45.67
24610;BME280;12758;47.890;11.694;2022-10-16T12:59:37;94192.66;;;21.46;47.47
24610;BME280;12758;47.890;11.694;2022-10-16T13:02:18;94187.16;;;21.53;44.68
24610;BME280;12758;47.890;11.694;2022-10-16T13:04:59;94188.38;;;21.63;46.60
24610;BME280;12758;47.890;11.694;2022-10-16T13:07:39;94185.59;;;21.56;46.70
24610;BME280;12758;47.890;11.694;2022-10-16T13:10:15;94192.91;;;21.16;44.98